Time;durP1;ratioP1;P1;durP2;ratioP2;P2;SDS_P1;SDS_P2;PMS_P1;PMS_P2;Temp;Humidity;BMP_temperature;BMP_pressure;BME280_temperature;BME280_humidity;BME280_pressure;Samples;Min_cycle;Max_cycle;Signal;HPM_P1;HPM_P2
2023/05/26 00:01:14;;;;;;;7.87;5.87;;;;;;;;;;5060699;28;20237;-81
2023/05/26 00:03:44;;;;;;;7.17;5.27;;;;;;;;;;5052383;28;20212;-81
2023/05/26 00:06:11;;;;;;;7.80;5.37;;;;;;;;;;5059397;28;20764;-81
2023/05/26 00:08:39;;;;;;;7.07;5.47;;;;;;;;;;5055885;28;20308;-81
2023/05/26 00:11:06;;;;;;;7.50;5.77;;;;;;;;;;5055470;28;20721;-81
2023/05/26 00:13:33;;;;;;;6.77;5.40;;;;;;;;;;5058622;28;20214;-81
2023/05/26 00:16:00;;;;;;;8.47;5.50;;;;;;;;;;5054983;28;20233;-81
2023/05/26 00:18:27;;;;;;;11.50;5.20;;;;;;;;;;5070633;28;20239;-81
2023/05/26 00:20:56;;;;;;;9.60;6.00;;;;;;;;;;5064927;28;20238;-81
2023/05/26 00:23:23;;;;;;;6.97;5.17;;;;;;;;;;5055182;28;20289;-81
2023/05/26 00:25:51;;;;;;;8.10;5.23;;;;;;;;;;5051123;28;20233;-81
2023/05/26 00:28:18;;;;;;;8.50;5.83;;;;;;;;;;5059727;28;20218;-80
2023/05/26 00:30:45;;;;;;;8.10;6.10;;;;;;;;;;5055348;28;20226;-80
2023/05/26 00:33:12;;;;;;;8.37;5.80;;;;;;;;;;5059714;28;20201;-80
2023/05/26 00:35:40;;;;;;;8.63;5.60;;;;;;;;;;5054693;28;20224;-81
2023/05/26 00:38:08;;;;;;;7.03;5.20;;;;;;;;;;5055378;28;20198;-81
2023/05/26 00:40:35;;;;;;;8.43;5.90;;;;;;;;;;5055283;28;20234;-81
2023/05/26 00:43:02;;;;;;;10.43;5.93;;;;;;;;;;5051532;28;20209;-81
2023/05/26 00:45:29;;;;;;;7.10;5.27;;;;;;;;;;5058802;28;20233;-81
2023/05/26 00:47:56;;;;;;;10.97;6.00;;;;;;;;;;5051300;28;20234;-81
2023/05/26 00:50:24;;;;;;;9.27;5.80;;;;;;;;;;5050737;28;20230;-81
2023/05/26 00:52:51;;;;;;;7.13;5.53;;;;;;;;;;5059931;28;20199;-81
2023/05/26 00:55:20;;;;;;;8.47;5.53;;;;;;;;;;5050551;28;20238;-81
2023/05/26 00:57:47;;;;;;;10.33;5.87;;;;;;;;;;5059860;28;20198;-81
2023/05/26 01:00:15;;;;;;;9.93;5.50;;;;;;;;;;5050938;28;20230;-81
2023/05/26 01:02:42;;;;;;;10.90;5.70;;;;;;;;;;5059962;28;20293;-81
2023/05/26 01:05:09;;;;;;;7.30;5.80;;;;;;;;;;5054404;28;20245;-81
2023/05/26 01:07:36;;;;;;;11.87;5.97;;;;;;;;;;5063178;28;20217;-81
2023/05/26 01:10:03;;;;;;;10.93;6.07;;;;;;;;;;5070347;28;20639;-81
2023/05/26 01:12:34;;;;;;;7.37;5.73;;;;;;;;;;5073310;28;20209;-81
2023/05/26 01:15:02;;;;;;;9.80;5.80;;;;;;;;;;5060138;28;20237;-81
2023/05/26 01:17:32;;;;;;;7.53;5.73;;;;;;;;;;5063801;28;20210;-80
2023/05/26 01:20:07;;;;;;;7.67;5.50;;;;;;;;;;5066186;28;20726;-80
2023/05/26 01:22:39;;;;;;;11.17;6.50;;;;;;;;;;5063415;28;20296;-81
2023/05/26 01:25:14;;;;;;;9.17;5.50;;;;;;;;;;5054012;28;20238;-80
2023/05/26 01:27:46;;;;;;;10.07;6.17;;;;;;;;;;5062145;28;20202;-80
2023/05/26 01:30:14;;;;;;;9.23;5.60;;;;;;;;;;5055118;28;20240;-81
2023/05/26 01:32:47;;;;;;;9.00;6.13;;;;;;;;;;5064223;28;20202;-81
2023/05/26 01:35:14;;;;;;;9.23;5.40;;;;;;;;;;5055050;28;20226;-80
2023/05/26 01:37:41;;;;;;;7.60;5.90;;;;;;;;;;5056759;28;20206;-80
2023/05/26 01:40:09;;;;;;;7.20;5.73;;;;;;;;;;5054739;28;20226;-81
2023/05/26 01:42:38;;;;;;;10.30;5.33;;;;;;;;;;5054058;28;20202;-80
2023/05/26 01:45:07;;;;;;;10.20;7.50;;;;;;;;;;5059629;28;20251;-81
2023/05/26 01:47:36;;;;;;;7.03;6.30;;;;;;;;;;5054652;28;20683;-80
2023/05/26 01:50:04;;;;;;;8.77;6.03;;;;;;;;;;5065570;28;20233;-80
2023/05/26 01:52:32;;;;;;;9.83;6.23;;;;;;;;;;5072465;28;20205;-80
2023/05/26 01:55:00;;;;;;;5.93;5.33;;;;;;;;;;5072985;28;20692;-81
2023/05/26 01:57:28;;;;;;;6.70;5.33;;;;;;;;;;5056078;28;20602;-80
2023/05/26 01:59:56;;;;;;;6.73;5.77;;;;;;;;;;5056500;28;20230;-80
2023/05/26 02:02:23;;;;;;;6.23;5.57;;;;;;;;;;5056291;28;20205;-80
2023/05/26 02:04:51;;;;;;;8.00;6.33;;;;;;;;;;5066324;28;20221;-81
2023/05/26 02:07:19;;;;;;;11.40;6.53;;;;;;;;;;5061229;28;20206;-81
2023/05/26 02:09:46;;;;;;;8.80;5.50;;;;;;;;;;5060956;28;20324;-81
2023/05/26 02:12:13;;;;;;;9.90;6.50;;;;;;;;;;5072936;28;20201;-81
2023/05/26 02:14:40;;;;;;;9.20;6.60;;;;;;;;;;5072593;28;20607;-81
2023/05/26 02:17:08;;;;;;;10.37;6.17;;;;;;;;;;5058767;28;20233;-80
2023/05/26 02:19:35;;;;;;;9.83;6.17;;;;;;;;;;5052905;28;20206;-81
2023/05/26 02:22:03;;;;;;;7.07;5.67;;;;;;;;;;5059569;28;20206;-80
2023/05/26 02:24:30;;;;;;;7.27;5.53;;;;;;;;;;5058142;28;20209;-80
2023/05/26 02:26:57;;;;;;;8.63;6.80;;;;;;;;;;5059157;22;20242;-87
2023/05/26 02:29:25;;;;;;;10.97;6.43;;;;;;;;;;5045786;28;20221;-88
2023/05/26 02:31:52;;;;;;;8.30;6.27;;;;;;;;;;5036897;28;20230;-88
2023/05/26 02:34:19;;;;;;;8.23;6.07;;;;;;;;;;5026936;28;20217;-88
2023/05/26 02:36:46;;;;;;;13.93;5.80;;;;;;;;;;5035081;28;20727;-88
2023/05/26 02:39:16;;;;;;;8.23;6.07;;;;;;;;;;5050797;28;20194;-87
2023/05/26 02:41:43;;;;;;;8.90;5.77;;;;;;;;;;5034338;28;20227;-87
2023/05/26 02:44:11;;;;;;;8.17;6.40;;;;;;;;;;5034326;28;20203;-87
2023/05/26 02:46:38;;;;;;;10.30;6.17;;;;;;;;;;5034332;28;20239;-87
2023/05/26 02:49:05;;;;;;;10.20;6.23;;;;;;;;;;5034973;28;20227;-87
2023/05/26 02:51:33;;;;;;;7.47;6.60;;;;;;;;;;5036262;28;20679;-87
2023/05/26 02:54:00;;;;;;;8.60;6.37;;;;;;;;;;5040389;28;20673;-88
2023/05/26 02:56:28;;;;;;;9.90;7.00;;;;;;;;;;5034220;28;20239;-87
2023/05/26 02:58:55;;;;;;;8.03;6.83;;;;;;;;;;5043329;28;20218;-88
2023/05/26 03:01:24;;;;;;;7.10;6.40;;;;;;;;;;5034095;28;20707;-87
2023/05/26 03:03:51;;;;;;;7.93;5.90;;;;;;;;;;5036022;28;20202;-88
2023/05/26 03:06:18;;;;;;;10.57;7.07;;;;;;;;;;5033685;28;20292;-87
2023/05/26 03:08:45;;;;;;;8.90;6.80;;;;;;;;;;5034984;28;20781;-88
2023/05/26 03:11:12;;;;;;;9.60;6.83;;;;;;;;;;5042510;28;20309;-87
2023/05/26 03:13:41;;;;;;;7.70;6.27;;;;;;;;;;5042917;28;20622;-87
2023/05/26 03:16:08;;;;;;;11.73;7.67;;;;;;;;;;5033381;28;20241;-88
2023/05/26 03:18:35;;;;;;;9.50;6.77;;;;;;;;;;5036868;28;20203;-86
2023/05/26 03:21:04;;;;;;;9.33;6.47;;;;;;;;;;5039772;28;20246;-88
2023/05/26 03:23:31;;;;;;;9.27;7.10;;;;;;;;;;5042650;28;20221;-89
2023/05/26 03:25:58;;;;;;;11.00;6.33;;;;;;;;;;5038302;28;20239;-88
2023/05/26 03:28:25;;;;;;;8.17;6.60;;;;;;;;;;5042105;28;20230;-88
2023/05/26 03:30:53;;;;;;;10.37;6.40;;;;;;;;;;5041073;28;20230;-87
2023/05/26 03:33:20;;;;;;;9.10;6.50;;;;;;;;;;5033177;28;20203;-87
2023/05/26 03:35:47;;;;;;;7.90;6.87;;;;;;;;;;5033427;28;20237;-87
2023/05/26 03:38:14;;;;;;;8.77;6.87;;;;;;;;;;5039964;28;20217;-87
2023/05/26 03:40:41;;;;;;;9.53;6.70;;;;;;;;;;5033681;28;20227;-87
2023/05/26 03:43:08;;;;;;;9.40;7.17;;;;;;;;;;5033950;28;20703;-87
2023/05/26 03:45:36;;;;;;;9.53;7.10;;;;;;;;;;5040766;28;20249;-86
2023/05/26 03:48:06;;;;;;;11.90;6.27;;;;;;;;;;5033635;28;20233;-87
2023/05/26 03:50:33;;;;;;;6.73;5.70;;;;;;;;;;5032708;28;20269;-86
2023/05/26 03:53:00;;;;;;;8.63;7.00;;;;;;;;;;5033601;28;20203;-87
2023/05/26 03:55:28;;;;;;;9.13;6.83;;;;;;;;;;5040914;28;20265;-85
2023/05/26 03:57:55;;;;;;;11.40;6.40;;;;;;;;;;5033456;28;20598;-86
2023/05/26 04:00:22;;;;;;;12.23;7.07;;;;;;;;;;5032944;28;20226;-87
2023/05/26 04:02:49;;;;;;;9.20;7.03;;;;;;;;;;5033539;28;20202;-87
2023/05/26 04:05:17;;;;;;;8.57;7.07;;;;;;;;;;5040535;28;20237;-87
2023/05/26 04:07:46;;;;;;;11.43;7.07;;;;;;;;;;5033420;28;20207;-86
2023/05/26 04:10:13;;;;;;;10.07;7.30;;;;;;;;;;5031529;28;20258;-86
2023/05/26 04:12:40;;;;;;;9.27;7.57;;;;;;;;;;5032982;28;20210;-85
2023/05/26 04:15:08;;;;;;;10.80;7.07;;;;;;;;;;5032314;28;20230;-86
2023/05/26 04:17:35;;;;;;;8.03;6.77;;;;;;;;;;5033968;28;20222;-87
2023/05/26 04:20:05;;;;;;;8.67;7.57;;;;;;;;;;5032609;28;20231;-87
2023/05/26 04:22:46;;;;;;;12.37;7.80;;;;;;;;;;5033046;28;20207;-88
2023/05/26 04:25:13;;;;;;;10.23;7.47;;;;;;;;;;5032307;28;20262;-87
2023/05/26 04:27:42;;;;;;;12.73;7.40;;;;;;;;;;5033237;28;20234;-88
2023/05/26 04:30:10;;;;;;;13.90;8.67;;;;;;;;;;5032280;28;20704;-86
2023/05/26 04:32:37;;;;;;;11.30;8.43;;;;;;;;;;5033670;28;20256;-85
2023/05/26 04:35:05;;;;;;;9.90;7.70;;;;;;;;;;5034098;28;20226;-85
2023/05/26 04:37:33;;;;;;;12.60;7.80;;;;;;;;;;5033531;28;20233;-85
2023/05/26 04:40:05;;;;;;;10.80;8.23;;;;;;;;;;5047911;28;20260;-91
2023/05/26 04:42:34;;;;;;;9.80;7.63;;;;;;;;;;5047858;28;20636;-87
2023/05/26 04:45:01;;;;;;;13.13;8.30;;;;;;;;;;5048191;28;20254;-87
2023/05/26 04:47:32;;;;;;;16.87;8.20;;;;;;;;;;5039416;28;20207;-86
2023/05/26 04:49:59;;;;;;;10.97;8.43;;;;;;;;;;5045169;28;20230;-86
2023/05/26 04:52:26;;;;;;;11.80;8.70;;;;;;;;;;5045107;28;20211;-86
2023/05/26 04:54:53;;;;;;;11.57;8.63;;;;;;;;;;5044598;28;20254;-86
2023/05/26 04:57:21;;;;;;;13.30;8.90;;;;;;;;;;5036831;28;20694;-87
2023/05/26 04:59:49;;;;;;;17.37;9.77;;;;;;;;;;5036476;28;20206;-87
2023/05/26 05:02:16;;;;;;;14.87;10.03;;;;;;;;;;5037057;28;20207;-87
2023/05/26 05:04:52;;;;;;;15.60;9.67;;;;;;;;;;5036263;28;20207;-87
2023/05/26 05:07:19;;;;;;;15.10;8.77;;;;;;;;;;5036956;28;20207;-87
2023/05/26 05:09:46;;;;;;;16.77;9.47;;;;;;;;;;5044243;28;20222;-87
2023/05/26 05:12:13;;;;;;;18.50;9.83;;;;;;;;;;5036567;28;20195;-87
2023/05/26 05:14:42;;;;;;;19.00;9.97;;;;;;;;;;5036148;28;20215;-87
2023/05/26 05:17:09;;;;;;;12.50;8.83;;;;;;;;;;5036395;28;20226;-87
2023/05/26 05:19:36;;;;;;;15.33;9.40;;;;;;;;;;5036040;28;20210;-87
2023/05/26 05:22:03;;;;;;;14.03;10.03;;;;;;;;;;5045029;28;20199;-87
2023/05/26 05:24:30;;;;;;;15.60;10.67;;;;;;;;;;5036463;28;20210;-88
2023/05/26 05:26:58;;;;;;;12.17;8.77;;;;;;;;;;5044261;28;20222;-89
2023/05/26 05:29:25;;;;;;;13.27;9.10;;;;;;;;;;5044567;28;20233;-87
2023/05/26 05:31:53;;;;;;;11.13;8.93;;;;;;;;;;5035683;28;20226;-87
2023/05/26 05:34:20;;;;;;;14.07;8.70;;;;;;;;;;5036460;28;20207;-87
2023/05/26 05:36:47;;;;;;;14.37;9.30;;;;;;;;;;5038638;28;20248;-86
2023/05/26 05:39:14;;;;;;;13.80;8.80;;;;;;;;;;5054796;28;20210;-87
2023/05/26 05:41:42;;;;;;;15.17;8.43;;;;;;;;;;5046330;28;20943;-87
2023/05/26 05:44:12;;;;;;;11.67;8.17;;;;;;;;;;5046770;28;20206;-87
2023/05/26 05:46:39;;;;;;;11.60;8.70;;;;;;;;;;5038533;28;20234;-87
2023/05/26 05:49:08;;;;;;;12.13;7.93;;;;;;;;;;5032535;28;20262;-87
2023/05/26 05:51:35;;;;;;;12.47;7.53;;;;;;;;;;5034007;28;20246;-84
2023/05/26 05:54:02;;;;;;;13.87;7.73;;;;;;;;;;5043277;28;20206;-86
2023/05/26 05:56:29;;;;;;;9.03;7.40;;;;;;;;;;5034341;28;20239;-87
2023/05/26 05:58:56;;;;;;;11.67;7.20;;;;;;;;;;5043451;28;20210;-87
2023/05/26 06:01:23;;;;;;;7.77;6.97;;;;;;;;;;5046980;28;20567;-87
2023/05/26 06:03:50;;;;;;;10.63;6.93;;;;;;;;;;5042757;28;20215;-87
2023/05/26 06:06:19;;;;;;;9.27;6.70;;;;;;;;;;5034760;28;20233;-87
2023/05/26 06:08:46;;;;;;;11.93;6.73;;;;;;;;;;5037246;28;20217;-86
2023/05/26 06:11:13;;;;;;;8.73;6.80;;;;;;;;;;5046121;28;20762;-87
2023/05/26 06:13:40;;;;;;;12.67;6.10;;;;;;;;;;5044615;28;20210;-87
2023/05/26 06:16:07;;;;;;;11.40;6.70;;;;;;;;;;5034306;28;20247;-87
2023/05/26 06:18:34;;;;;;;9.60;5.83;;;;;;;;;;5034240;28;20203;-87
2023/05/26 06:21:01;;;;;;;10.80;6.73;;;;;;;;;;5034031;28;20314;-88
2023/05/26 06:23:30;;;;;;;7.90;6.10;;;;;;;;;;5034146;28;20211;-88
2023/05/26 06:25:57;;;;;;;8.10;5.63;;;;;;;;;;5030018;28;20225;-88
2023/05/26 06:28:27;;;;;;;11.60;6.73;;;;;;;;;;5038772;28;20214;-87
2023/05/26 06:30:54;;;;;;;10.73;5.90;;;;;;;;;;5050296;28;20957;-88
2023/05/26 06:33:21;;;;;;;7.90;5.73;;;;;;;;;;5034263;28;20207;-87
2023/05/26 06:35:48;;;;;;;9.70;5.80;;;;;;;;;;5042057;28;20671;-87
2023/05/26 06:38:15;;;;;;;11.57;6.07;;;;;;;;;;5034435;28;20811;-88
2023/05/26 06:40:44;;;;;;;9.43;5.57;;;;;;;;;;5043587;28;20251;-88
2023/05/26 06:43:11;;;;;;;10.80;5.50;;;;;;;;;;5034519;28;20277;-88
2023/05/26 06:45:38;;;;;;;9.03;5.23;;;;;;;;;;5041408;28;20940;-89
2023/05/26 06:48:06;;;;;;;10.97;5.53;;;;;;;;;;5034407;28;20203;-89
2023/05/26 06:50:33;;;;;;;8.70;5.47;;;;;;;;;;5042468;28;20730;-89
2023/05/26 06:53:00;;;;;;;9.33;5.50;;;;;;;;;;5038468;28;20206;-88
2023/05/26 06:55:27;;;;;;;9.80;5.60;;;;;;;;;;5045919;28;20644;-88
2023/05/26 06:57:56;;;;;;;6.97;5.10;;;;;;;;;;5033793;28;20210;-89
2023/05/26 07:00:23;;;;;;;10.43;4.87;;;;;;;;;;5041423;28;20222;-89
2023/05/26 07:02:50;;;;;;;10.87;5.17;;;;;;;;;;5035926;28;20214;-88
2023/05/26 07:05:17;;;;;;;7.17;5.00;;;;;;;;;;5047063;28;20230;-89
2023/05/26 07:07:44;;;;;;;10.67;4.87;;;;;;;;;;5033648;28;20217;-88
2023/05/26 07:10:11;;;;;;;7.10;5.23;;;;;;;;;;5039874;28;20249;-89
2023/05/26 07:12:38;;;;;;;9.60;4.70;;;;;;;;;;5037933;28;20205;-88
2023/05/26 07:15:07;;;;;;;7.13;4.67;;;;;;;;;;5034172;28;20238;-88
2023/05/26 07:17:34;;;;;;;7.47;4.17;;;;;;;;;;5034615;28;20211;-89
2023/05/26 07:20:01;;;;;;;8.07;4.60;;;;;;;;;;5037765;28;20233;-90
2023/05/26 07:22:29;;;;;;;9.90;4.50;;;;;;;;;;5037852;28;20199;-89
2023/05/26 07:24:57;;;;;;;8.48;4.50;;;;;;;;;;5033246;28;20236;-89
2023/05/26 07:27:24;;;;;;;6.55;4.50;;;;;;;;;;5042635;28;20265;-89
2023/05/26 07:29:51;;;;;;;11.07;4.97;;;;;;;;;;5035954;28;20230;-90
2023/05/26 07:32:19;;;;;;;5.75;4.43;;;;;;;;;;5039963;28;20203;-90
2023/05/26 07:34:46;;;;;;;8.35;4.70;;;;;;;;;;5032934;28;20211;-85
2023/05/26 07:37:13;;;;;;;6.15;4.00;;;;;;;;;;5040865;28;20210;-87
2023/05/26 07:39:40;;;;;;;6.07;4.40;;;;;;;;;;5049188;28;20212;-85
2023/05/26 07:42:07;;;;;;;8.45;4.88;;;;;;;;;;5039802;28;20210;-87
2023/05/26 07:44:34;;;;;;;11.43;4.82;;;;;;;;;;5034637;28;20229;-85
2023/05/26 07:47:01;;;;;;;8.38;4.68;;;;;;;;;;5053754;28;20226;-85
2023/05/26 07:49:30;;;;;;;8.43;4.40;;;;;;;;;;5046307;28;20207;-85
2023/05/26 07:51:57;;;;;;;7.78;4.25;;;;;;;;;;5047936;28;20218;-85
2023/05/26 07:54:24;;;;;;;8.45;4.40;;;;;;;;;;5051434;28;20214;-86
2023/05/26 07:56:51;;;;;;;7.45;4.10;;;;;;;;;;5051732;28;20235;-87
2023/05/26 07:59:18;;;;;;;7.80;4.40;;;;;;;;;;5052624;28;20693;-86
2023/05/26 08:01:45;;;;;;;9.07;4.18;;;;;;;;;;5049360;28;20230;-86
2023/05/26 08:04:12;;;;;;;4.88;4.30;;;;;;;;;;5032393;28;20198;-85
2023/05/26 08:06:41;;;;;;;9.35;4.50;;;;;;;;;;5031653;28;20242;-86
2023/05/26 08:09:10;;;;;;;8.25;4.60;;;;;;;;;;5032293;28;20203;-85
2023/05/26 08:11:37;;;;;;;9.48;4.78;;;;;;;;;;5031641;28;20257;-86
2023/05/26 08:14:05;;;;;;;7.30;4.20;;;;;;;;;;5043925;28;20213;-86
2023/05/26 08:16:32;;;;;;;7.03;4.40;;;;;;;;;;5035720;28;20237;-86
2023/05/26 08:18:59;;;;;;;7.55;4.20;;;;;;;;;;5031891;28;20534;-87
2023/05/26 08:21:26;;;;;;;8.63;5.00;;;;;;;;;;5031866;28;20241;-86
2023/05/26 08:23:54;;;;;;;9.43;4.32;;;;;;;;;;5040426;28;20210;-86
2023/05/26 08:26:21;;;;;;;7.97;4.05;;;;;;;;;;5066496;23;20238;-89
2023/05/26 08:28:49;;;;;;;10.98;5.00;;;;;;;;;;5049702;28;20209;-90
2023/05/26 08:31:16;;;;;;;8.00;4.97;;;;;;;;;;5045663;28;20222;-90
2023/05/26 08:33:43;;;;;;;8.45;4.15;;;;;;;;;;5039616;28;20217;-87
2023/05/26 08:36:10;;;;;;;6.65;4.20;;;;;;;;;;5042745;28;20260;-90
2023/05/26 08:38:37;;;;;;;8.52;4.43;;;;;;;;;;5051471;28;20683;-90
2023/05/26 08:41:06;;;;;;;8.52;4.68;;;;;;;;;;5050625;28;20226;-90
2023/05/26 08:43:36;;;;;;;6.30;4.07;;;;;;;;;;5049580;28;20205;-90
2023/05/26 08:46:04;;;;;;;7.93;3.92;;;;;;;;;;5046745;28;20726;-90
2023/05/26 08:48:31;;;;;;;6.95;4.00;;;;;;;;;;5049847;28;20210;-90
2023/05/26 08:50:59;;;;;;;9.45;4.10;;;;;;;;;;5049509;28;20245;-90
2023/05/26 08:53:26;;;;;;;7.75;4.70;;;;;;;;;;5050211;28;20214;-91
2023/05/26 08:55:53;;;;;;;7.45;4.32;;;;;;;;;;5049515;28;20691;-91
2023/05/26 08:58:22;;;;;;;7.00;3.70;;;;;;;;;;5050077;28;20206;-90
2023/05/26 09:00:49;;;;;;;7.90;4.35;;;;;;;;;;5049661;28;20230;-90
2023/05/26 09:03:16;;;;;;;5.22;3.97;;;;;;;;;;5051196;28;20324;-90
2023/05/26 09:05:43;;;;;;;8.70;4.20;;;;;;;;;;5049674;28;20249;-91
2023/05/26 09:08:13;;;;;;;7.00;4.10;;;;;;;;;;5049868;28;20684;-90
2023/05/26 09:10:40;;;;;;;5.97;3.67;;;;;;;;;;5049479;28;20229;-90
2023/05/26 09:13:09;;;;;;;7.55;3.70;;;;;;;;;;5050273;28;20264;-90
2023/05/26 09:15:38;;;;;;;8.70;4.85;;;;;;;;;;5041577;28;20244;-90
2023/05/26 09:18:05;;;;;;;9.80;4.03;;;;;;;;;;5041293;28;20221;-90
2023/05/26 09:20:33;;;;;;;6.85;3.95;;;;;;;;;;5049284;28;20226;-90
2023/05/26 09:23:00;;;;;;;6.00;4.25;;;;;;;;;;5049488;28;20214;-90
2023/05/26 09:25:31;;;;;;;7.63;4.18;;;;;;;;;;5050406;28;20225;-89
2023/05/26 09:28:01;;;;;;;9.45;3.80;;;;;;;;;;5053357;28;20217;-90
2023/05/26 09:30:30;;;;;;;6.97;3.97;;;;;;;;;;5053118;28;20785;-90
2023/05/26 09:32:58;;;;;;;8.50;4.22;;;;;;;;;;5053208;28;20242;-90
2023/05/26 09:35:25;;;;;;;7.78;3.83;;;;;;;;;;5052431;28;20248;-90
2023/05/26 09:37:52;;;;;;;7.35;4.03;;;;;;;;;;5052821;28;20664;-90
2023/05/26 09:40:23;;;;;;;7.57;3.95;;;;;;;;;;5052801;28;20707;-90
2023/05/26 09:42:53;;;;;;;9.18;3.88;;;;;;;;;;5053267;28;20207;-90
2023/05/26 09:45:20;;;;;;;11.40;4.82;;;;;;;;;;5052596;28;20249;-90
2023/05/26 09:47:51;;;;;;;7.35;3.97;;;;;;;;;;5052688;28;20210;-90
2023/05/26 09:50:20;;;;;;;6.82;3.55;;;;;;;;;;5052614;28;20222;-90
2023/05/26 09:52:48;;;;;;;7.80;3.67;;;;;;;;;;5052817;28;20282;-90
2023/05/26 09:55:15;;;;;;;5.38;3.50;;;;;;;;;;5052155;28;20914;-90
2023/05/26 09:57:42;;;;;;;7.88;4.20;;;;;;;;;;5049299;28;20217;-89
2023/05/26 10:00:12;;;;;;;7.50;3.90;;;;;;;;;;5054401;28;20641;-88
2023/05/26 10:02:40;;;;;;;7.40;3.88;;;;;;;;;;5046880;28;20268;-88
2023/05/26 10:05:08;;;;;;;6.75;4.10;;;;;;;;;;5048526;28;20254;-88
2023/05/26 10:07:38;;;;;;;10.00;4.20;;;;;;;;;;5054311;28;20234;-90
2023/05/26 10:10:05;;;;;;;7.03;3.50;;;;;;;;;;5051877;28;20229;-90
2023/05/26 10:12:33;;;;;;;7.40;3.90;;;;;;;;;;5052275;28;20275;-90
2023/05/26 10:15:00;;;;;;;6.55;3.70;;;;;;;;;;5052322;28;20234;-90
2023/05/26 10:17:28;;;;;;;7.55;4.30;;;;;;;;;;5046458;28;20237;-90
2023/05/26 10:19:55;;;;;;;8.23;3.42;;;;;;;;;;5051289;28;20230;-90
2023/05/26 10:22:26;;;;;;;6.63;3.55;;;;;;;;;;5052675;28;20206;-91
2023/05/26 10:24:59;;;;;;;6.78;3.90;;;;;;;;;;5051815;28;20676;-91
2023/05/26 10:27:30;;;;;;;6.00;3.30;;;;;;;;;;5052254;28;20268;-91
2023/05/26 10:30:01;;;;;;;5.82;3.70;;;;;;;;;;5051585;28;20237;-91
2023/05/26 10:32:45;;;;;;;6.63;3.80;;;;;;;;;;5052360;28;20230;-92
2023/05/26 10:35:24;;;;;;;4.88;3.47;;;;;;;;;;5043561;28;20229;-92
2023/05/26 10:37:55;;;;;;;5.85;3.38;;;;;;;;;;5052054;28;20205;-91
2023/05/26 10:40:30;;;;;;;6.28;3.70;;;;;;;;;;5042838;28;20709;-91
2023/05/26 10:43:01;;;;;;;5.90;3.22;;;;;;;;;;5050318;28;20214;-91
2023/05/26 10:45:32;;;;;;;5.40;3.90;;;;;;;;;;5045856;28;20648;-91
2023/05/26 10:47:59;;;;;;;5.38;3.80;;;;;;;;;;5049554;28;20233;-91
2023/05/26 10:50:26;;;;;;;4.28;3.20;;;;;;;;;;5051527;28;20321;-91
2023/05/26 10:52:55;;;;;;;5.95;3.47;;;;;;;;;;5051584;28;20205;-91
2023/05/26 10:55:33;;;;;;;5.10;3.33;;;;;;;;;;5051617;28;20313;-92
2023/05/26 10:58:21;;;;;;;4.85;3.60;;;;;;;;;;5049703;28;20206;-91
2023/05/26 11:00:54;;;;;;;7.25;3.53;;;;;;;;;;5050687;28;20237;-91
2023/05/26 11:03:37;;;;;;;5.43;3.13;;;;;;;;;;5051589;28;20256;-90
2023/05/26 11:06:05;;;;;;;6.30;4.32;;;;;;;;;;5049098;28;20238;-91
2023/05/26 11:08:39;;;;;;;4.25;3.22;;;;;;;;;;5051229;28;20660;-90
2023/05/26 11:11:09;;;;;;;6.55;3.55;;;;;;;;;;5050691;28;20237;-92
2023/05/26 11:13:43;;;;;;;6.53;3.22;;;;;;;;;;5046831;28;20687;-92
2023/05/26 11:16:10;;;;;;;5.15;3.35;;;;;;;;;;5049398;28;20230;-91
2023/05/26 11:18:38;;;;;;;8.73;3.90;;;;;;;;;;5051601;28;20206;-92
2023/05/26 11:21:06;;;;;;;7.07;3.75;;;;;;;;;;5050822;28;20240;-91
2023/05/26 11:23:33;;;;;;;5.15;3.22;;;;;;;;;;5047771;28;20213;-91
2023/05/26 11:26:00;;;;;;;7.10;3.70;;;;;;;;;;5050220;28;20245;-91
2023/05/26 11:28:28;;;;;;;5.53;3.60;;;;;;;;;;5050699;28;20718;-90
2023/05/26 11:30:56;;;;;;;6.93;3.50;;;;;;;;;;5050533;28;20237;-91
2023/05/26 11:33:23;;;;;;;4.43;3.40;;;;;;;;;;5051382;28;20206;-92
2023/05/26 11:35:50;;;;;;;7.18;3.42;;;;;;;;;;5050607;28;20233;-90
2023/05/26 11:38:18;;;;;;;4.90;3.42;;;;;;;;;;5050569;28;20212;-89
2023/05/26 11:40:46;;;;;;;8.18;3.45;;;;;;;;;;5051204;28;20244;-89
2023/05/26 11:43:13;;;;;;;8.07;4.00;;;;;;;;;;5058612;28;20214;-90
2023/05/26 11:45:42;;;;;;;7.72;3.53;;;;;;;;;;5050586;28;20268;-89
2023/05/26 11:48:09;;;;;;;7.13;3.67;;;;;;;;;;5049816;28;20214;-90
2023/05/26 11:50:36;;;;;;;6.20;3.47;;;;;;;;;;5051246;28;20578;-91
2023/05/26 11:53:03;;;;;;;6.50;3.75;;;;;;;;;;5042401;28;20217;-90
2023/05/26 11:55:31;;;;;;;6.47;3.20;;;;;;;;;;5051260;28;20264;-92
2023/05/26 11:57:58;;;;;;;6.07;3.10;;;;;;;;;;5049333;28;20289;-92
2023/05/26 12:00:26;;;;;;;6.30;3.28;;;;;;;;;;5050235;28;20233;-91
2023/05/26 12:02:54;;;;;;;5.70;3.20;;;;;;;;;;5050689;28;20660;-90
2023/05/26 12:05:23;;;;;;;5.40;3.10;;;;;;;;;;5050335;28;20317;-92
2023/05/26 12:08:02;;;;;;;6.00;3.30;;;;;;;;;;5050554;28;20600;-92
2023/05/26 12:10:30;;;;;;;4.43;3.20;;;;;;;;;;5050510;28;20702;-91
2023/05/26 12:12:57;;;;;;;5.38;3.50;;;;;;;;;;5050526;28;20337;-92
2023/05/26 12:15:27;;;;;;;7.05;3.67;;;;;;;;;;5041408;28;20259;-93
2023/05/26 12:17:56;;;;;;;5.50;2.83;;;;;;;;;;5066071;28;20210;-93
2023/05/26 12:20:24;;;;;;;4.22;3.08;;;;;;;;;;5050459;28;20295;-86
2023/05/26 12:22:51;;;;;;;6.15;3.35;;;;;;;;;;5042372;28;20888;-84
2023/05/26 12:25:23;;;;;;;6.13;3.10;;;;;;;;;;5049912;28;20257;-85
2023/05/26 12:27:50;;;;;;;5.85;3.00;;;;;;;;;;5050820;28;20244;-85
2023/05/26 12:30:19;;;;;;;5.38;3.00;;;;;;;;;;5041992;28;20236;-85
2023/05/26 12:32:46;;;;;;;5.38;3.30;;;;;;;;;;5050661;28;20679;-85
2023/05/26 12:35:15;;;;;;;6.68;3.65;;;;;;;;;;5048244;28;20279;-85
2023/05/26 12:37:42;;;;;;;4.47;3.10;;;;;;;;;;5048068;28;20206;-85
2023/05/26 12:40:09;;;;;;;6.25;3.42;;;;;;;;;;5049978;28;20234;-86
2023/05/26 12:42:36;;;;;;;5.97;3.30;;;;;;;;;;5042151;28;20422;-85
2023/05/26 12:45:04;;;;;;;4.53;3.05;;;;;;;;;;5049685;28;20229;-86
2023/05/26 12:47:31;;;;;;;5.95;3.60;;;;;;;;;;5049890;28;20641;-86
2023/05/26 12:49:58;;;;;;;3.78;2.83;;;;;;;;;;5049416;28;20594;-86
2023/05/26 12:52:27;;;;;;;5.85;3.13;;;;;;;;;;5051170;28;20222;-86
2023/05/26 12:54:55;;;;;;;5.47;3.00;;;;;;;;;;5051166;28;20236;-84
2023/05/26 12:57:22;;;;;;;8.38;3.63;;;;;;;;;;5051122;28;20221;-85
2023/05/26 12:59:51;;;;;;;6.20;3.35;;;;;;;;;;5052282;28;20237;-85
2023/05/26 13:02:18;;;;;;;7.70;3.38;;;;;;;;;;5052131;28;20244;-85
2023/05/26 13:04:45;;;;;;;7.85;3.60;;;;;;;;;;5042969;28;20704;-85
2023/05/26 13:07:12;;;;;;;4.28;2.90;;;;;;;;;;5050575;28;20223;-84
2023/05/26 13:09:41;;;;;;;6.13;3.35;;;;;;;;;;5045948;28;20579;-85
2023/05/26 13:12:08;;;;;;;6.40;3.00;;;;;;;;;;5048127;28;20321;-84
2023/05/26 13:14:35;;;;;;;6.45;3.17;;;;;;;;;;5048771;28;20676;-85
2023/05/26 13:17:02;;;;;;;4.75;2.90;;;;;;;;;;5061966;28;20256;-85
2023/05/26 13:19:29;;;;;;;4.97;2.90;;;;;;;;;;5061458;28;20221;-89
2023/05/26 13:21:56;;;;;;;7.22;3.60;;;;;;;;;;5072393;28;20222;-91
2023/05/26 13:24:23;;;;;;;6.63;3.15;;;;;;;;;;5076575;28;20221;-94
2023/05/26 13:26:52;;;;;;;4.95;3.10;;;;;;;;;;5077487;28;20241;-92
2023/05/26 13:29:19;;;;;;;6.07;3.40;;;;;;;;;;5058217;28;20191;-94
2023/05/26 13:31:55;;;;;;;3.92;2.70;;;;;;;;;;5074952;28;20520;-94
2023/05/26 13:34:22;;;;;;;7.95;3.67;;;;;;;;;;5078358;28;20193;-95
2023/05/26 13:36:49;;;;;;;5.13;3.20;;;;;;;;;;5075956;28;20240;-94
2023/05/26 13:39:16;;;;;;;5.10;2.95;;;;;;;;;;5068785;28;20674;-94
2023/05/26 13:41:44;;;;;;;8.70;3.40;;;;;;;;;;5056045;28;20226;-93
2023/05/26 13:44:12;;;;;;;6.05;3.10;;;;;;;;;;5056619;28;20687;-95
2023/05/26 13:46:41;;;;;;;6.30;3.05;;;;;;;;;;5055533;28;20234;-94
2023/05/26 13:49:08;;;;;;;6.15;3.15;;;;;;;;;;5055352;28;20213;-90
2023/05/26 13:51:35;;;;;;;8.18;3.55;;;;;;;;;;5053357;28;20619;-92
2023/05/26 13:54:02;;;;;;;5.90;2.80;;;;;;;;;;5054818;28;20684;-87
2023/05/26 13:56:30;;;;;;;5.38;3.03;;;;;;;;;;5045612;28;20226;-91
2023/05/26 13:58:57;;;;;;;6.05;3.35;;;;;;;;;;5054536;28;20206;-90
2023/05/26 14:01:26;;;;;;;5.75;3.40;;;;;;;;;;5053387;28;20236;-89
2023/05/26 14:03:53;;;;;;;6.45;3.22;;;;;;;;;;5053828;28;20217;-87
2023/05/26 14:06:20;;;;;;;4.95;3.50;;;;;;;;;;5053357;28;20233;-89
2023/05/26 14:08:47;;;;;;;5.50;2.95;;;;;;;;;;5053762;28;20206;-88
2023/05/26 14:11:14;;;;;;;5.03;3.03;;;;;;;;;;5049809;28;20230;-87
2023/05/26 14:13:41;;;;;;;7.18;3.20;;;;;;;;;;5041957;28;20600;-89
2023/05/26 14:16:08;;;;;;;4.03;2.63;;;;;;;;;;5053321;28;20242;-89
2023/05/26 14:18:37;;;;;;;5.70;3.20;;;;;;;;;;5053536;28;20218;-89
2023/05/26 14:21:04;;;;;;;5.88;2.92;;;;;;;;;;5052016;28;20244;-89
2023/05/26 14:23:32;;;;;;;6.47;3.30;;;;;;;;;;5041438;28;20202;-86
2023/05/26 14:26:00;;;;;;;6.97;3.50;;;;;;;;;;5058015;23;20257;-85
2023/05/26 14:28:27;;;;;;;6.90;3.67;;;;;;;;;;5053894;28;20219;-83
2023/05/26 14:30:54;;;;;;;6.40;2.97;;;;;;;;;;5053294;28;20279;-85
2023/05/26 14:33:21;;;;;;;9.25;3.80;;;;;;;;;;5052785;28;20615;-84
2023/05/26 14:35:54;;;;;;;6.60;2.90;;;;;;;;;;5050305;28;20233;-84
2023/05/26 14:38:21;;;;;;;7.95;2.83;;;;;;;;;;5040517;28;20264;-84
2023/05/26 14:40:48;;;;;;;4.20;2.80;;;;;;;;;;5039023;28;20734;-84
2023/05/26 14:43:16;;;;;;;5.50;3.20;;;;;;;;;;5042427;28;20533;-84
2023/05/26 14:45:43;;;;;;;7.00;2.63;;;;;;;;;;5046206;28;20597;-84